createdAt,value
2022-08-28T00:00:17.086Z,91.70
2022-08-28T00:02:43.887Z,91.60
2022-08-28T00:05:11.533Z,91.50
2022-08-28T00:07:38.349Z,91.80
2022-08-28T00:10:05.953Z,91.50
2022-08-28T00:12:32.577Z,91.20
2022-08-28T00:14:59.643Z,91.30
2022-08-28T00:17:26.236Z,91.20
2022-08-28T00:19:52.878Z,91.20
2022-08-28T00:22:19.528Z,91.20
2022-08-28T00:24:46.345Z,91.20
2022-08-28T00:27:32.075Z,91.10
2022-08-28T00:29:59.260Z,91.00
2022-08-28T00:32:25.897Z,91.20
2022-08-28T00:34:52.672Z,91.00
2022-08-28T00:37:19.329Z,91.00
2022-08-28T00:39:51.661Z,91.20
2022-08-28T00:42:18.356Z,91.30
2022-08-28T00:44:45.594Z,91.30
2022-08-28T00:47:12.561Z,91.20
2022-08-28T00:49:45.006Z,91.00
2022-08-28T00:52:15.321Z,90.90
2022-08-28T00:54:45.685Z,91.00
2022-08-28T00:57:34.274Z,91.00
2022-08-28T01:00:01.604Z,91.10
2022-08-28T01:02:28.787Z,91.20
2022-08-28T01:04:55.858Z,91.00
2022-08-28T01:07:23.315Z,91.20
2022-08-28T01:09:52.422Z,90.80
2022-08-28T01:12:24.597Z,91.00
2022-08-28T01:14:53.507Z,91.00
2022-08-28T01:17:22.084Z,91.40
2022-08-28T01:19:56.357Z,91.30
2022-08-28T01:22:32.927Z,91.10
2022-08-28T01:25:01.007Z,90.80
2022-08-28T01:27:27.893Z,90.90
2022-08-28T01:29:55.274Z,90.90
2022-08-28T01:32:36.245Z,91.40
2022-08-28T01:35:03.644Z,91.30
2022-08-28T01:37:30.247Z,91.00
2022-08-28T01:39:57.056Z,91.30
2022-08-28T01:42:24.891Z,91.40
2022-08-28T01:44:52.838Z,91.60
2022-08-28T01:47:20.082Z,91.50
2022-08-28T01:49:46.822Z,91.20
2022-08-28T01:52:13.540Z,91.40
2022-08-28T01:54:40.396Z,91.40
2022-08-28T01:57:07.428Z,91.60
2022-08-28T01:59:34.044Z,91.30
2022-08-28T02:02:01.269Z,91.20
2022-08-28T02:04:32.117Z,91.20
2022-08-28T02:06:59.283Z,91.00
2022-08-28T02:09:25.994Z,91.40
2022-08-28T02:11:53.963Z,91.00
2022-08-28T02:14:22.303Z,91.80
2022-08-28T02:16:49.961Z,91.50
2022-08-28T02:19:17.098Z,91.50
2022-08-28T02:21:43.718Z,91.50
2022-08-28T02:24:10.390Z,91.70
2022-08-28T02:26:37.313Z,91.80
2022-08-28T02:29:04.248Z,91.60
2022-08-28T02:31:31.068Z,92.10
2022-08-28T02:33:57.778Z,92.10
2022-08-28T02:36:24.581Z,91.60
2022-08-28T02:38:57.360Z,92.00
2022-08-28T02:41:24.432Z,91.90
2022-08-28T02:43:51.255Z,91.70
2022-08-28T02:46:18.034Z,91.60
2022-08-28T02:48:45.568Z,91.40
2022-08-28T02:51:13.459Z,91.40
2022-08-28T02:53:40.863Z,91.20
2022-08-28T02:56:08.075Z,91.20
2022-08-28T02:58:35.330Z,91.40
2022-08-28T03:01:03.476Z,91.50
2022-08-28T03:03:33.630Z,91.80
2022-08-28T03:06:01.651Z,91.90
2022-08-28T03:08:28.705Z,92.10
2022-08-28T03:10:55.570Z,91.90
2022-08-28T03:13:26.490Z,91.90
2022-08-28T03:15:55.797Z,91.90
2022-08-28T03:18:23.608Z,92.10
2022-08-28T03:20:50.214Z,92.40
2022-08-28T03:23:29.253Z,92.20
2022-08-28T03:25:57.610Z,92.30
2022-08-28T03:28:25.526Z,92.40
2022-08-28T03:30:52.487Z,92.30
2022-08-28T03:33:19.509Z,92.30
2022-08-28T03:35:46.222Z,92.60
2022-08-28T03:38:13.011Z,92.30
2022-08-28T03:40:43.735Z,92.40
2022-08-28T03:43:13.904Z,92.50
2022-08-28T03:45:41.079Z,92.10
2022-08-28T03:48:07.921Z,91.90
2022-08-28T03:50:34.748Z,92.10
2022-08-28T03:53:02.411Z,91.70
2022-08-28T03:55:29.383Z,91.50
2022-08-28T03:57:56.287Z,91.90
2022-08-28T04:00:22.898Z,92.30
2022-08-28T04:02:49.473Z,92.40
2022-08-28T04:05:17.612Z,92.00
2022-08-28T04:07:44.585Z,91.80
2022-08-28T04:10:12.256Z,92.00
2022-08-28T04:12:38.861Z,92.10
2022-08-28T04:15:07.155Z,92.00
2022-08-28T04:17:34.198Z,92.30
2022-08-28T04:20:00.932Z,92.40
2022-08-28T04:22:29.433Z,92.60
2022-08-28T04:24:56.158Z,92.40
2022-08-28T04:27:22.888Z,92.40
2022-08-28T04:29:49.890Z,92.50
2022-08-28T04:32:19.558Z,92.50
2022-08-28T04:34:46.466Z,92.50
2022-08-28T04:37:13.041Z,92.50
2022-08-28T04:39:39.685Z,92.50
2022-08-28T04:42:06.274Z,92.60
2022-08-28T04:44:32.889Z,92.30
2022-08-28T04:46:59.517Z,92.40
2022-08-28T04:49:27.869Z,92.60
2022-08-28T04:51:54.585Z,92.60
2022-08-28T04:54:21.464Z,92.50
2022-08-28T04:56:48.052Z,92.70
2022-08-28T04:59:14.821Z,92.50
2022-08-28T05:01:42.752Z,92.30
2022-08-28T05:04:11.358Z,92.30
2022-08-28T05:06:43.413Z,92.40
2022-08-28T05:09:10.208Z,92.30
2022-08-28T05:11:39.190Z,92.30
2022-08-28T05:14:07.329Z,92.40
2022-08-28T05:16:34.469Z,92.60
2022-08-28T05:19:01.996Z,92.40
2022-08-28T05:21:28.612Z,92.20
2022-08-28T05:23:57.364Z,92.10
2022-08-28T05:26:26.822Z,92.30
2022-08-28T05:28:55.631Z,92.10
2022-08-28T05:31:23.330Z,92.00
2022-08-28T05:33:51.069Z,91.90
2022-08-28T05:36:17.839Z,91.90
2022-08-28T05:38:44.439Z,91.90
2022-08-28T05:41:12.090Z,91.70
2022-08-28T05:43:39.484Z,91.80
2022-08-28T05:46:10.644Z,91.40
2022-08-28T05:48:39.472Z,91.60
2022-08-28T05:51:06.548Z,91.60
2022-08-28T05:53:38.683Z,91.40
2022-08-28T05:56:05.735Z,91.00
2022-08-28T05:58:33.623Z,90.80
2022-08-28T06:01:08.214Z,91.20
2022-08-28T06:03:36.373Z,90.90
2022-08-28T06:06:04.202Z,91.20
2022-08-28T06:08:31.760Z,91.60
2022-08-28T06:10:59.042Z,91.70
2022-08-28T06:13:26.506Z,90.90
2022-08-28T06:15:53.539Z,90.90
2022-08-28T06:18:23.271Z,91.10
2022-08-28T06:20:49.938Z,91.10
2022-08-28T06:23:24.086Z,90.70
2022-08-28T06:25:51.381Z,90.80
2022-08-28T06:28:22.617Z,90.90
2022-08-28T06:31:18.039Z,91.20
2022-08-28T06:33:37.867Z,91.30
2022-08-28T06:36:05.021Z,91.20
2022-08-28T06:38:31.643Z,90.90
2022-08-28T06:40:58.662Z,90.40
2022-08-28T06:43:26.742Z,90.40
2022-08-28T06:45:54.456Z,90.60
2022-08-28T06:48:23.002Z,90.10
2022-08-28T06:50:50.637Z,90.20
2022-08-28T06:53:18.110Z,90.50
2022-08-28T06:55:44.956Z,89.30
2022-08-28T06:58:12.540Z,87.90
2022-08-28T07:00:40.384Z,88.50
2022-08-28T07:03:06.965Z,88.20
2022-08-28T07:05:34.065Z,86.90
2022-08-28T07:08:00.943Z,86.90
2022-08-28T07:10:31.220Z,86.80
2022-08-28T07:13:00.260Z,87.00
2022-08-28T07:15:27.261Z,85.70
2022-08-28T07:17:53.895Z,86.80
2022-08-28T07:20:20.566Z,86.90
2022-08-28T07:22:51.253Z,86.30
2022-08-28T07:25:26.658Z,86.70
2022-08-28T07:27:53.246Z,86.10
2022-08-28T07:30:20.044Z,85.80
2022-08-28T07:32:49.791Z,85.00
2022-08-28T07:35:17.302Z,84.70
2022-08-28T07:37:44.200Z,84.50
2022-08-28T07:40:11.748Z,84.70
2022-08-28T07:42:57.126Z,84.80
2022-08-28T07:45:24.319Z,84.70
2022-08-28T07:47:51.597Z,84.40
2022-08-28T07:50:18.247Z,84.00
2022-08-28T07:52:44.821Z,82.60
2022-08-28T07:55:12.658Z,83.40
2022-08-28T07:57:39.530Z,81.90
2022-08-28T08:00:07.442Z,82.20
2022-08-28T08:02:34.173Z,81.90
2022-08-28T08:05:00.988Z,81.40
2022-08-28T08:07:28.402Z,80.60
2022-08-28T08:09:55.124Z,80.70
2022-08-28T08:12:24.551Z,77.70
2022-08-28T08:14:54.589Z,75.30
2022-08-28T08:17:21.199Z,73.50
2022-08-28T08:19:48.685Z,70.80
2022-08-28T08:22:15.478Z,70.90
2022-08-28T08:24:42.789Z,60.40
2022-08-28T08:27:10.531Z,55.20
2022-08-28T08:29:37.979Z,53.70
2022-08-28T08:32:07.803Z,51.50
2022-08-28T08:34:36.593Z,51.30
2022-08-28T08:37:05.729Z,48.50
2022-08-28T08:39:33.345Z,48.80
2022-08-28T08:42:00.664Z,50.10
2022-08-28T08:44:33.928Z,48.90
2022-08-28T08:47:16.706Z,50.20
2022-08-28T08:50:03.639Z,51.90
2022-08-28T08:52:36.416Z,53.20
2022-08-28T08:55:20.692Z,52.10
2022-08-28T08:57:49.387Z,48.20
2022-08-28T09:00:17.411Z,46.30
2022-08-28T09:02:57.125Z,45.40
2022-08-28T09:05:28.569Z,45.00
2022-08-28T09:07:59.181Z,44.10
2022-08-28T09:10:33.652Z,44.70
2022-08-28T09:13:03.219Z,47.10
2022-08-28T09:15:36.282Z,48.60
2022-08-28T09:18:13.157Z,48.40
2022-08-28T09:20:40.487Z,50.80
2022-08-28T09:23:13.075Z,50.60
2022-08-28T09:25:44.778Z,48.90
2022-08-28T09:28:14.193Z,46.60
2022-08-28T09:30:41.863Z,43.70
2022-08-28T09:33:08.918Z,44.10
2022-08-28T09:35:39.769Z,42.40
2022-08-28T09:38:27.931Z,42.40
2022-08-28T09:41:31.397Z,42.20
2022-08-28T09:43:58.169Z,41.50
2022-08-28T09:46:29.003Z,41.70
2022-08-28T09:49:09.484Z,40.90
2022-08-28T09:51:39.815Z,38.40
2022-08-28T09:54:12.938Z,40.40
2022-08-28T09:56:40.640Z,42.40
2022-08-28T09:59:09.039Z,42.50
2022-08-28T10:01:38.528Z,42.40
2022-08-28T10:04:05.296Z,45.00
2022-08-28T10:06:33.777Z,47.60
2022-08-28T10:09:19.190Z,46.70
2022-08-28T10:11:55.022Z,47.20
2022-08-28T10:14:24.623Z,48.20
2022-08-28T10:17:06.718Z,47.40
2022-08-28T10:19:44.122Z,46.50
2022-08-28T10:22:10.906Z,46.00
2022-08-28T10:24:56.351Z,45.50
2022-08-28T10:27:38.614Z,43.90
2022-08-28T10:30:08.986Z,44.40
2022-08-28T10:32:47.464Z,43.70
2022-08-28T10:35:17.833Z,42.20
2022-08-28T10:37:51.422Z,41.60
2022-08-28T10:40:21.817Z,41.80
2022-08-28T10:42:54.203Z,43.30
2022-08-28T10:45:34.140Z,43.70
2022-08-28T10:48:20.429Z,44.80
2022-08-28T10:50:52.046Z,46.60
2022-08-28T10:53:23.152Z,46.00
2022-08-28T10:55:53.029Z,45.10
2022-08-28T10:58:24.744Z,44.30
2022-08-28T11:00:56.727Z,44.20
2022-08-28T11:03:34.379Z,41.40
2022-08-28T11:06:04.319Z,40.10
2022-08-28T11:08:35.479Z,38.20
2022-08-28T11:11:03.382Z,38.10
2022-08-28T11:13:39.244Z,38.00
2022-08-28T11:16:17.379Z,37.90
2022-08-28T11:19:02.933Z,38.40
2022-08-28T11:21:49.773Z,38.50
2022-08-28T11:24:43.600Z,37.80
2022-08-28T11:27:17.619Z,38.30
2022-08-28T11:30:01.595Z,37.00
2022-08-28T11:32:28.701Z,38.50
2022-08-28T11:34:56.169Z,37.80
2022-08-28T11:37:42.670Z,37.30
2022-08-28T11:40:19.102Z,38.00
2022-08-28T11:42:49.425Z,39.70
2022-08-28T11:45:21.110Z,39.30
2022-08-28T11:47:49.106Z,38.20
2022-08-28T11:50:39.326Z,38.20
2022-08-28T11:53:16.055Z,38.70
2022-08-28T11:55:42.668Z,39.00
2022-08-28T11:58:27.993Z,39.10
2022-08-28T12:01:05.641Z,39.10
2022-08-28T12:03:55.560Z,40.20
2022-08-28T12:06:41.278Z,40.00
2022-08-28T12:09:08.683Z,37.50
2022-08-28T12:11:41.784Z,37.70
2022-08-28T12:14:09.695Z,37.60
2022-08-28T12:16:54.793Z,36.40
2022-08-28T12:19:30.934Z,37.30
2022-08-28T12:21:57.577Z,37.70
2022-08-28T12:24:24.378Z,37.10
2022-08-28T12:26:53.226Z,38.20
2022-08-28T12:29:29.012Z,37.60
2022-08-28T12:32:15.149Z,36.90
2022-08-28T12:34:50.197Z,36.60
2022-08-28T12:37:22.872Z,38.40
2022-08-28T12:39:49.865Z,37.40
2022-08-28T12:42:22.281Z,39.00
2022-08-28T12:44:48.953Z,37.90
2022-08-28T12:47:17.736Z,37.80
2022-08-28T12:49:44.566Z,38.30
2022-08-28T12:52:21.128Z,38.00
2022-08-28T12:54:48.837Z,38.50
2022-08-28T12:57:20.248Z,38.30
2022-08-28T12:59:48.162Z,38.30
2022-08-28T13:02:20.995Z,38.60
2022-08-28T13:04:53.593Z,38.40
2022-08-28T13:07:33.661Z,38.30
2022-08-28T13:10:03.491Z,37.50
2022-08-28T13:12:55.573Z,38.50
2022-08-28T13:15:42.256Z,38.10
2022-08-28T13:18:09.224Z,39.90
2022-08-28T13:20:37.375Z,41.80
2022-08-28T13:23:04.596Z,40.40
2022-08-28T13:25:33.217Z,40.10
2022-08-28T13:28:02.873Z,39.30
2022-08-28T13:30:33.362Z,38.60
2022-08-28T13:33:20.257Z,39.10
2022-08-28T13:35:48.031Z,41.50
2022-08-28T13:38:16.691Z,40.40
2022-08-28T13:40:59.607Z,40.50
2022-08-28T13:43:28.114Z,41.40
2022-08-28T13:45:54.744Z,42.00
2022-08-28T13:48:23.525Z,42.90
2022-08-28T13:50:52.596Z,43.30
2022-08-28T13:53:20.985Z,46.40
2022-08-28T13:55:49.112Z,43.10
2022-08-28T13:58:16.219Z,44.50
2022-08-28T14:00:44.957Z,44.20
2022-08-28T14:03:30.818Z,42.20
2022-08-28T14:05:58.001Z,41.50
2022-08-28T14:08:25.428Z,41.30
2022-08-28T14:10:52.170Z,41.80
2022-08-28T14:13:19.844Z,44.10
2022-08-28T14:15:47.432Z,41.50
2022-08-28T14:18:14.066Z,43.50
2022-08-28T14:20:40.672Z,41.70
2022-08-28T14:23:08.741Z,42.50
2022-08-28T14:25:44.985Z,45.80
2022-08-28T14:28:12.537Z,43.70
2022-08-28T14:30:43.176Z,43.70
2022-08-28T14:33:09.844Z,45.10
2022-08-28T14:35:40.738Z,48.40
2022-08-28T14:38:08.025Z,44.50
2022-08-28T14:40:42.242Z,45.50
2022-08-28T14:43:10.100Z,46.10
2022-08-28T14:45:43.682Z,46.50
2022-08-28T14:48:10.308Z,46.80
2022-08-28T14:50:44.833Z,47.30
2022-08-28T14:53:12.865Z,47.40
2022-08-28T14:55:40.534Z,50.70
2022-08-28T14:58:07.150Z,50.00
2022-08-28T15:00:37.640Z,48.00
2022-08-28T15:03:04.622Z,51.10
2022-08-28T15:05:31.265Z,47.30
2022-08-28T15:07:57.994Z,49.60
2022-08-28T15:10:24.675Z,49.00
2022-08-28T15:12:51.262Z,51.30
2022-08-28T15:15:20.406Z,48.60
2022-08-28T15:17:47.146Z,48.60
2022-08-28T15:20:14.087Z,48.90
2022-08-28T15:22:40.661Z,48.60
2022-08-28T15:25:07.316Z,48.80
2022-08-28T15:27:34.066Z,49.60
2022-08-28T15:30:00.797Z,49.60
2022-08-28T15:32:27.618Z,49.40
2022-08-28T15:34:54.238Z,49.30
2022-08-28T15:37:20.841Z,50.30
2022-08-28T15:40:06.518Z,49.90
2022-08-28T15:42:33.325Z,50.80
2022-08-28T15:45:00.402Z,51.40
2022-08-28T15:47:27.340Z,54.10
2022-08-28T15:49:55.180Z,50.80
2022-08-28T15:52:22.428Z,54.00
2022-08-28T15:54:49.727Z,55.10
2022-08-28T15:57:16.550Z,50.90
2022-08-28T15:59:49.568Z,51.50
2022-08-28T16:02:22.040Z,55.30
2022-08-28T16:04:48.863Z,51.20
2022-08-28T16:07:15.778Z,52.40
2022-08-28T16:09:42.615Z,51.60
2022-08-28T16:12:09.285Z,51.70
2022-08-28T16:14:36.344Z,51.80
2022-08-28T16:17:05.923Z,51.80
2022-08-28T16:19:38.111Z,54.20
2022-08-28T16:22:04.938Z,51.60
2022-08-28T16:24:31.640Z,51.50
2022-08-28T16:26:58.244Z,51.90
2022-08-28T16:29:24.862Z,51.80
2022-08-28T16:31:51.853Z,52.20
2022-08-28T16:34:19.439Z,52.40
2022-08-28T16:36:50.281Z,54.60
2022-08-28T16:39:17.106Z,52.50
2022-08-28T16:41:49.652Z,55.10
2022-08-28T16:44:20.006Z,56.50
2022-08-28T16:46:46.716Z,56.20
2022-08-28T16:49:13.578Z,55.80
2022-08-28T16:51:40.332Z,55.60
2022-08-28T16:54:07.125Z,57.50
2022-08-28T16:56:33.853Z,57.20
2022-08-28T16:59:00.469Z,56.30
2022-08-28T17:01:27.122Z,56.50
2022-08-28T17:03:54.646Z,56.20
2022-08-28T17:06:31.633Z,59.50
2022-08-28T17:08:58.769Z,59.10
2022-08-28T17:11:26.422Z,58.70
2022-08-28T17:13:53.265Z,57.10
2022-08-28T17:16:20.532Z,57.50
2022-08-28T17:18:52.157Z,58.70
2022-08-28T17:21:38.250Z,58.80
2022-08-28T17:24:04.935Z,57.70
2022-08-28T17:26:31.970Z,58.60
2022-08-28T17:28:58.577Z,58.30
2022-08-28T17:31:25.197Z,59.50
2022-08-28T17:33:51.975Z,59.50
2022-08-28T17:36:30.705Z,61.80
2022-08-28T17:39:01.664Z,62.00
2022-08-28T17:41:28.240Z,61.30
2022-08-28T17:43:58.409Z,63.70
2022-08-28T17:46:25.807Z,64.10
2022-08-28T17:48:55.449Z,63.00
2022-08-28T17:51:33.846Z,64.90
2022-08-28T17:54:10.789Z,64.80
2022-08-28T17:56:37.420Z,62.30
2022-08-28T17:59:04.805Z,63.20
2022-08-28T18:01:31.460Z,63.50
2022-08-28T18:03:58.445Z,64.50
2022-08-28T18:06:25.227Z,66.20
2022-08-28T18:08:51.959Z,64.50
2022-08-28T18:11:19.170Z,63.00
2022-08-28T18:13:46.439Z,64.50
2022-08-28T18:16:13.196Z,63.40
2022-08-28T18:18:40.085Z,63.20
2022-08-28T18:21:06.932Z,65.00
2022-08-28T18:23:33.666Z,64.10
2022-08-28T18:26:00.260Z,65.00
2022-08-28T18:28:26.884Z,64.20
2022-08-28T18:30:53.828Z,65.10
2022-08-28T18:33:22.404Z,65.10
2022-08-28T18:35:49.667Z,65.10
2022-08-28T18:38:16.944Z,65.60
2022-08-28T18:40:44.982Z,65.10
2022-08-28T18:43:12.302Z,63.90
2022-08-28T18:45:38.914Z,68.40
2022-08-28T18:48:05.956Z,65.10
2022-08-28T18:50:32.603Z,64.90
2022-08-28T18:52:59.649Z,63.70
2022-08-28T18:55:27.706Z,65.70
2022-08-28T18:57:57.364Z,65.80
2022-08-28T19:00:25.224Z,66.10
2022-08-28T19:02:52.765Z,65.90
2022-08-28T19:05:20.954Z,66.50
2022-08-28T19:07:47.880Z,66.70
2022-08-28T19:10:32.938Z,66.30
2022-08-28T19:13:01.093Z,66.90
2022-08-28T19:15:28.246Z,67.50
2022-08-28T19:17:55.257Z,67.40
2022-08-28T19:20:21.963Z,67.60
2022-08-28T19:22:48.816Z,68.30
2022-08-28T19:25:27.825Z,67.70
2022-08-28T19:27:56.431Z,68.70
2022-08-28T19:30:26.996Z,68.00
2022-08-28T19:32:53.549Z,68.80
2022-08-28T19:35:20.449Z,68.40
2022-08-28T19:37:51.455Z,67.90
2022-08-28T19:40:18.264Z,68.10
2022-08-28T19:42:44.882Z,67.70
2022-08-28T19:45:12.520Z,67.80
2022-08-28T19:47:40.041Z,68.40
2022-08-28T19:50:08.397Z,68.20
2022-08-28T19:52:36.341Z,68.70
2022-08-28T19:55:05.831Z,69.10
2022-08-28T19:57:33.022Z,68.80
2022-08-28T20:00:00.078Z,68.70
2022-08-28T20:02:27.377Z,68.80
2022-08-28T20:04:54.491Z,69.20
2022-08-28T20:07:21.156Z,69.70
2022-08-28T20:09:47.787Z,68.40
2022-08-28T20:12:14.647Z,68.90
2022-08-28T20:14:42.577Z,70.10
2022-08-28T20:17:09.380Z,69.30
2022-08-28T20:19:36.146Z,68.70
2022-08-28T20:22:03.784Z,69.30
2022-08-28T20:24:30.532Z,69.60
2022-08-28T20:26:57.361Z,69.10
2022-08-28T20:29:24.371Z,69.30
2022-08-28T20:31:51.396Z,69.90
2022-08-28T20:34:19.004Z,69.20
2022-08-28T20:36:45.928Z,69.00
2022-08-28T20:39:12.762Z,68.90
2022-08-28T20:41:40.377Z,68.10
2022-08-28T20:44:08.145Z,68.00
2022-08-28T20:46:40.062Z,69.50
2022-08-28T20:49:08.679Z,67.40
2022-08-28T20:51:53.852Z,66.40
2022-08-28T20:54:21.502Z,66.60
2022-08-28T20:56:48.609Z,66.50
2022-08-28T20:59:15.205Z,67.70
2022-08-28T21:01:42.964Z,66.60
2022-08-28T21:04:09.901Z,67.20
2022-08-28T21:06:36.543Z,67.50
2022-08-28T21:09:03.157Z,70.20
2022-08-28T21:11:29.876Z,65.90
2022-08-28T21:13:56.561Z,66.20
2022-08-28T21:16:23.235Z,68.20
2022-08-28T21:19:12.157Z,66.70
2022-08-28T21:21:36.990Z,65.80
2022-08-28T21:24:05.085Z,68.80
2022-08-28T21:26:31.666Z,65.10
2022-08-28T21:28:58.366Z,63.90
2022-08-28T21:31:25.034Z,64.00
2022-08-28T21:33:51.678Z,64.00
2022-08-28T21:36:18.534Z,67.20
2022-08-28T21:38:45.235Z,65.60
2022-08-28T21:41:12.917Z,65.50
2022-08-28T21:43:40.313Z,63.00
2022-08-28T21:46:07.514Z,63.70
2022-08-28T21:48:37.330Z,64.80
2022-08-28T21:51:11.797Z,61.10
2022-08-28T21:53:38.787Z,61.10
2022-08-28T21:56:06.265Z,59.30
2022-08-28T21:58:33.371Z,61.30
2022-08-28T22:01:00.084Z,61.30
2022-08-28T22:03:27.414Z,62.80
2022-08-28T22:05:54.649Z,59.80
2022-08-28T22:08:22.479Z,59.70
2022-08-28T22:10:49.186Z,60.10
2022-08-28T22:13:16.437Z,61.00
2022-08-28T22:15:43.838Z,59.70
2022-08-28T22:18:11.407Z,58.90
2022-08-28T22:20:59.329Z,60.70
2022-08-28T22:23:26.626Z,60.60
2022-08-28T22:25:53.502Z,61.90
2022-08-28T22:28:20.289Z,59.50
2022-08-28T22:30:47.002Z,60.60
2022-08-28T22:33:13.701Z,61.20
2022-08-28T22:35:40.381Z,62.40
2022-08-28T22:38:07.312Z,61.10
2022-08-28T22:40:34.110Z,60.30
2022-08-28T22:43:00.845Z,59.80
2022-08-28T22:45:27.434Z,62.00
2022-08-28T22:47:54.127Z,60.70
2022-08-28T22:50:20.857Z,61.00
2022-08-28T22:52:48.310Z,60.80
2022-08-28T22:55:17.102Z,61.10
2022-08-28T22:57:44.009Z,63.60
2022-08-28T23:00:12.437Z,60.10
2022-08-28T23:02:39.518Z,60.20
2022-08-28T23:05:06.289Z,61.60
2022-08-28T23:07:32.834Z,61.90
2022-08-28T23:09:59.433Z,60.60
2022-08-28T23:12:26.166Z,61.90
2022-08-28T23:14:53.130Z,60.70
2022-08-28T23:17:19.700Z,61.90
2022-08-28T23:19:47.752Z,61.00
2022-08-28T23:22:15.288Z,62.00
2022-08-28T23:24:41.940Z,60.70
2022-08-28T23:27:34.256Z,61.50
2022-08-28T23:29:55.499Z,61.00
2022-08-28T23:32:22.032Z,61.20
2022-08-28T23:34:49.081Z,61.90
2022-08-28T23:37:15.987Z,61.30
2022-08-28T23:39:42.586Z,61.70
2022-08-28T23:42:09.308Z,63.90
2022-08-28T23:44:36.214Z,62.60
2022-08-28T23:47:03.953Z,62.20
2022-08-28T23:49:33.045Z,66.30
2022-08-28T23:51:59.977Z,62.60
2022-08-28T23:54:26.711Z,62.80
2022-08-28T23:56:53.778Z,62.20
2022-08-28T23:59:21.201Z,62.00
